Time;durP1;ratioP1;P1;durP2;ratioP2;P2;SDS_P1;SDS_P2;PMS_P1;PMS_P2;Temp;Humidity;BMP_temperature;BMP_pressure;BME280_temperature;BME280_humidity;BME280_pressure;Samples;Min_cycle;Max_cycle;Signal;HPM_P1;HPM_P2
2023/04/12 00:03:07;;;;;;;;;26.25;22.00;;;;;10.29;66.12;100292.69;146612;569;46033;-78
2023/04/12 00:06:31;;;;;;;;;24.25;23.75;;;;;10.30;66.11;100300.53;146612;613;46010;-82
2023/04/12 00:09:30;;;;;;;;;23.75;20.00;;;;;10.29;66.27;100291.00;146610;629;46016;-83
2023/04/12 00:12:43;;;;;;;;;23.75;19.25;;;;;10.24;66.24;100284.66;146614;612;46020;-84
2023/04/12 00:15:37;;;;;;;;;23.25;20.50;;;;;10.21;66.05;100288.81;146612;620;46016;-81
2023/04/12 00:18:44;;;;;;;;;27.25;20.75;;;;;10.21;66.07;100283.66;146613;595;46013;-82
2023/04/12 00:21:47;;;;;;;;;22.25;19.75;;;;;10.22;66.16;100277.63;146613;584;46016;-79
2023/04/12 00:24:49;;;;;;;;;23.50;19.75;;;;;10.22;66.43;100280.22;146613;619;46010;-77
2023/04/12 00:27:41;;;;;;;;;26.25;17.50;;;;;10.17;66.58;100277.44;146608;595;46017;-77
2023/04/12 00:30:54;;;;;;;;;28.50;21.00;;;;;10.12;66.25;100272.06;146610;576;46020;-77
2023/04/12 00:33:57;;;;;;;;;24.00;20.50;;;;;10.16;66.01;100275.69;146612;610;47019;-77
2023/04/12 00:37:25;;;;;;;;;18.25;16.50;;;;;7.22;64.91;99763.78;146613;588;46030;-76
2023/04/12 00:40:23;;;;;;;;;21.25;19.50;;;;;10.12;66.08;100255.59;146612;603;46015;-78
2023/04/12 00:43:22;;;;;;;;;15.75;14.00;;;;;10.10;66.19;100254.66;146611;618;46012;-79
2023/04/12 00:46:28;;;;;;;;;16.00;15.00;;;;;10.11;65.71;100249.53;146611;622;46016;-80
2023/04/12 00:49:35;;;;;;;;;20.50;17.75;;;;;7.39;65.47;99819.66;146613;564;46011;-79
2023/04/12 00:52:49;;;;;;;;;;;;;;;;;;;;;
2023/04/12 00:56:06;;;;;;;;;21.75;18.50;;;;;10.01;65.04;100262.91;146614;585;46010;-80
2023/04/12 00:59:11;;;;;;;;;30.00;23.50;;;;;7.20;64.92;99770.56;146613;692;46012;-79
2023/04/12 01:02:25;;;;;;;;;17.75;16.75;;;;;10.02;65.86;100253.41;146611;627;47020;-78
2023/04/12 01:05:29;;;;;;;;;23.25;19.75;;;;;10.03;65.39;100250.91;146612;631;46012;-78
2023/04/12 01:08:51;;;;;;;;;;;;;;;;;;;;;
2023/04/12 01:12:35;;;;;;;;;21.00;16.75;;;;;8.03;65.10;99903.56;146608;566;47013;-77
2023/04/12 01:16:05;;;;;;;;;21.75;19.75;;;;;7.00;64.94;99728.31;146613;594;46020;-76
2023/04/12 01:19:02;;;;;;;;;23.75;18.50;;;;;10.00;65.55;100244.69;146611;578;46017;-75
2023/04/12 01:22:57;;;;;;;;;21.00;18.25;;;;;7.11;64.59;99744.34;146614;596;46010;-81
2023/04/12 01:26:39;;;;;;;;;19.25;18.50;;;;;8.25;64.78;99933.88;146613;579;46016;-79
2023/04/12 01:29:34;;;;;;;;;21.00;17.50;;;;;10.01;65.46;100237.00;146612;599;47020;-80
2023/04/12 01:32:38;;;;;;;;;19.00;14.25;;;;;10.03;65.29;100240.56;146610;639;46917;-81
2023/04/12 01:35:39;;;;;;;;;22.25;16.25;;;;;10.00;65.11;100243.00;146614;584;46020;-79
2023/04/12 01:38:46;;;;;;;;;26.00;22.00;;;;;10.02;64.66;100245.66;146612;580;46016;-79
2023/04/12 01:41:56;;;;;;;;;26.75;21.25;;;;;10.10;64.41;100246.91;146608;564;48021;-75
2023/04/12 01:44:51;;;;;;;;;19.50;17.75;;;;;10.23;63.42;100232.78;146611;645;47012;-77
2023/04/12 01:47:46;;;;;;;;;18.00;16.50;;;;;10.36;63.06;100232.53;146614;573;46021;-77
2023/04/12 01:50:54;;;;;;;;;21.50;19.00;;;;;10.47;62.61;100236.50;146610;604;46030;-77
2023/04/12 01:54:10;;;;;;;;;20.00;16.50;;;;;10.51;61.86;100232.34;146617;619;46020;-79
2023/04/12 01:57:44;;;;;;;;;;;;;;;;;;;;;
2023/04/12 02:01:11;;;;;;;;;;;;;;;;;;;;;
2023/04/12 02:04:10;;;;;;;;;19.75;16.25;;;;;10.70;60.99;100226.22;146619;593;46017;-79
2023/04/12 02:07:16;;;;;;;;;16.75;14.75;;;;;10.66;61.73;100235.59;146619;635;46020;-80
2023/04/12 02:10:05;;;;;;;;;14.25;12.50;;;;;10.46;62.48;100216.56;146708;569;46022;-77
2023/04/12 02:13:04;;;;;;;;;17.75;15.50;;;;;10.46;62.11;100239.00;146619;577;46012;-78
2023/04/12 02:16:27;;;;;;;;;19.50;19.25;;;;;10.34;62.16;100228.97;146621;583;46021;-79
2023/04/12 02:19:24;;;;;;;;;23.75;18.75;;;;;10.28;62.69;100237.41;146617;586;46012;-77
2023/04/12 02:22:27;;;;;;;;;18.25;16.00;;;;;10.22;63.05;100233.59;146620;581;46020;-78
2023/04/12 02:25:45;;;;;;;;;15.50;14.25;;;;;7.07;63.03;99724.34;146615;611;46017;-77
2023/04/12 02:28:51;;;;;;;;;18.00;15.00;;;;;10.08;63.73;100235.56;146620;584;46010;-78
2023/04/12 02:31:50;;;;;;;;;18.50;16.50;;;;;10.04;63.88;100239.72;146614;573;46016;-78
2023/04/12 02:34:43;;;;;;;;;20.25;18.00;;;;;10.10;64.12;100233.94;146619;590;47014;-79
2023/04/12 02:37:38;;;;;;;;;17.25;15.00;;;;;10.10;64.22;100247.78;146616;590;46036;-80
2023/04/12 02:40:42;;;;;;;;;30.25;24.25;;;;;10.08;64.18;100236.44;146622;588;46014;-80
2023/04/12 02:43:37;;;;;;;;;21.50;17.00;;;;;10.12;63.93;100238.38;146617;606;46012;-79
2023/04/12 02:46:45;;;;;;;;;20.50;17.50;;;;;9.44;63.26;100112.75;146620;601;46021;-74
2023/04/12 02:49:49;;;;;;;;;21.75;18.50;;;;;10.24;63.08;100242.31;146617;570;46016;-74
2023/04/12 02:52:55;;;;;;;;;20.00;18.25;;;;;10.29;62.69;100243.47;146620;587;46021;-80
2023/04/12 02:55:38;;;;;;;;;18.25;17.50;;;;;10.35;64.32;100242.03;146702;569;46022;-80
2023/04/12 02:58:32;;;;;;;;;19.75;16.00;;;;;10.42;63.47;100250.97;146617;585;46016;-76
2023/04/12 03:01:27;;;;;;;;;14.50;13.00;;;;;10.46;61.45;100249.38;146621;624;46029;-74
2023/04/12 03:04:28;;;;;;;;;16.50;13.50;;;;;10.56;60.73;100252.47;146618;633;46016;-75
2023/04/12 03:07:42;;;;;;;;;15.00;14.00;;;;;10.69;60.32;100240.03;146619;631;46020;-77
2023/04/12 03:10:37;;;;;;;;;15.50;12.50;;;;;10.79;60.15;100240.47;146613;589;46016;-83
2023/04/12 03:13:32;;;;;;;;;16.50;14.50;;;;;10.89;59.79;100239.16;146621;582;46020;-84
2023/04/12 03:16:31;;;;;;;;;18.25;16.50;;;;;10.97;59.79;100239.47;146614;694;46016;-82
2023/04/12 03:19:23;;;;;;;;;12.75;12.25;;;;;11.01;58.37;100237.06;146622;585;46021;-81
2023/04/12 03:22:15;;;;;;;;;11.75;11.00;;;;;11.08;58.93;100233.00;146613;565;46016;-82
2023/04/12 03:25:11;;;;;;;;;18.50;14.75;;;;;11.14;58.67;100237.56;146620;640;46020;-80
2023/04/12 03:28:10;;;;;;;;;17.50;15.00;;;;;11.19;58.33;100241.25;146617;605;46012;-81
2023/04/12 03:31:09;;;;;;;;;16.75;12.00;;;;;11.20;58.31;100230.03;146618;563;46020;-81
2023/04/12 03:34:01;;;;;;;;;19.00;14.50;;;;;11.24;57.55;100232.81;146615;611;46016;-78
2023/04/12 03:37:01;;;;;;;;;19.25;17.50;;;;;11.29;58.00;100241.69;146617;595;46020;-78
2023/04/12 03:39:55;;;;;;;;;15.25;15.00;;;;;11.33;57.52;100242.69;146615;590;46013;-79
2023/04/12 03:42:52;;;;;;;;;24.25;18.75;;;;;11.35;58.04;100242.75;146618;564;47012;-79
2023/04/12 03:45:50;;;;;;;;;32.75;26.75;;;;;11.36;58.17;100245.41;146612;627;46012;-78
2023/04/12 03:48:44;;;;;;;;;29.75;25.75;;;;;11.37;58.27;100241.09;146617;593;46020;-77
2023/04/12 03:51:51;;;;;;;;;;;;;;;;;;;;;
2023/04/12 03:55:01;;;;;;;;;34.25;28.00;;;;;11.35;58.54;100243.63;146618;647;46011;-82
2023/04/12 03:57:57;;;;;;;;;47.75;38.50;;;;;11.32;57.90;100241.81;146618;675;46031;-78
2023/04/12 04:01:00;;;;;;;;;;;;;;;;;;;;;
2023/04/12 04:04:05;;;;;;;;;24.25;21.75;;;;;11.25;58.75;100228.53;146617;590;46016;-83
2023/04/12 04:07:04;;;;;;;;;20.75;19.50;;;;;11.23;58.76;100236.25;146619;594;46020;-79
2023/04/12 04:10:03;;;;;;;;;24.50;22.25;;;;;11.20;58.54;100241.31;146617;579;47016;-80
2023/04/12 04:13:05;;;;;;;;;22.50;19.75;;;;;11.22;58.25;100252.66;146623;595;46010;-86
2023/04/12 04:16:14;;;;;;;;;25.00;21.00;;;;;9.27;58.59;99908.41;146617;617;46016;-84
2023/04/12 04:19:12;;;;;;;;;21.00;18.50;;;;;11.24;58.44;100257.87;146617;573;46010;-85
2023/04/12 04:22:14;;;;;;;;;19.50;17.75;;;;;11.22;58.33;100247.47;146621;604;46012;-85
2023/04/12 04:25:13;;;;;;;;;25.25;17.00;;;;;11.22;58.33;100255.25;146621;615;46010;-82
2023/04/12 04:28:14;;;;;;;;;23.75;20.75;;;;;11.23;59.21;100261.31;146617;603;46014;-84
2023/04/12 04:31:12;;;;;;;;;20.75;18.00;;;;;11.18;59.58;100260.22;146617;626;48013;-83
2023/04/12 04:34:12;;;;;;;;;28.75;26.00;;;;;11.15;59.47;100258.38;146608;635;47016;-84
2023/04/12 04:37:08;;;;;;;;;23.75;18.75;;;;;11.16;59.14;100260.19;146617;566;46020;-84
2023/04/12 04:40:08;;;;;;;;;22.75;21.00;;;;;11.20;58.93;100263.78;146616;607;46016;-83
2023/04/12 04:43:17;;;;;;;;;25.00;20.25;;;;;11.11;59.09;100227.94;146617;580;46047;-80
2023/04/12 04:46:26;;;;;;;;;;;;;;;;;;;;;
2023/04/12 04:49:46;;;;;;;;;23.75;21.00;;;;;12.25;58.70;100261.88;146623;669;46010;-78
2023/04/12 04:53:03;;;;;;;;;22.25;19.00;;;;;12.84;56.01;100259.66;146617;585;46016;-82
2023/04/12 04:56:10;;;;;;;;;18.75;16.00;;;;;13.15;54.72;100262.44;146620;569;46010;-80
2023/04/12 04:59:16;;;;;;;;;17.00;13.50;;;;;13.33;53.86;100257.00;146617;582;47012;-85
2023/04/12 05:02:08;;;;;;;;;17.00;14.75;;;;;13.49;53.43;100266.19;146621;576;46011;-84
2023/04/12 05:05:14;;;;;;;;;21.00;17.50;;;;;13.60;53.45;100259.59;146618;664;46014;-83
2023/04/12 05:08:43;;;;;;;;;;;;;;;;;;;;;
2023/04/12 05:11:41;;;;;;;;;17.75;15.25;;;;;13.91;53.33;100268.34;146613;574;46012;-79
2023/04/12 05:14:34;;;;;;;;;18.25;14.25;;;;;14.04;52.74;100264.37;146621;608;46027;-82
2023/04/12 05:17:38;;;;;;;;;20.25;16.25;;;;;14.13;51.99;100264.66;146616;738;46012;-80
2023/04/12 05:20:48;;;;;;;;;20.75;16.50;;;;;14.06;52.95;100231.44;146623;585;46020;-74
2023/04/12 05:23:50;;;;;;;;;17.50;16.50;;;;;14.33;52.40;100262.66;146615;620;46016;-77
2023/04/12 05:27:12;;;;;;;;;20.75;20.00;;;;;14.48;52.05;100259.56;146622;593;46012;-74
2023/04/12 05:30:21;;;;;;;;;21.50;18.75;;;;;14.60;52.62;100254.72;146617;564;47012;-76
2023/04/12 05:33:17;;;;;;;;;26.50;23.50;;;;;14.75;52.24;100247.31;146615;571;46020;-74
2023/04/12 05:36:25;;;;;;;;;19.00;12.25;;;;;14.88;49.57;100248.53;146617;573;46014;-74
2023/04/12 05:39:32;;;;;;;;;18.50;15.00;;;;;14.91;50.38;100247.72;146625;569;46020;-72
2023/04/12 05:42:38;;;;;;;;;18.00;16.25;;;;;14.97;50.03;100251.38;146615;619;46016;-73
2023/04/12 05:45:31;;;;;;;;;17.00;14.00;;;;;15.07;49.64;100264.66;146622;635;46027;-74
2023/04/12 05:48:39;;;;;;;;;15.25;13.25;;;;;15.16;51.09;100265.78;146617;626;46016;-74
2023/04/12 05:51:32;;;;;;;;;15.75;13.00;;;;;15.25;49.17;100255.56;146624;602;46010;-73
2023/04/12 05:54:32;;;;;;;;;14.50;12.00;;;;;15.45;48.92;100269.12;146610;620;47917;-70
2023/04/12 05:57:41;;;;;;;;;16.50;15.50;;;;;15.57;50.55;100249.34;146621;580;46020;-72
2023/04/12 06:00:48;;;;;;;;;27.25;25.25;;;;;15.94;48.84;100272.00;146619;611;47012;-73
2023/04/12 06:04:17;;;;;;;;;16.25;14.25;;;;;16.12;48.20;100266.31;146621;581;46012;-73
2023/04/12 06:07:18;;;;;;;;;13.75;11.00;;;;;16.17;46.49;100260.34;146619;612;46012;-73
2023/04/12 06:10:34;;;;;;;;;;;;;;;;;;;;;
2023/04/12 06:13:35;;;;;;;;;10.25;10.25;;;;;16.08;46.44;100277.56;146619;637;46018;-74
2023/04/12 06:16:38;;;;;;;;;13.50;10.25;;;;;16.10;45.40;100260.16;146623;580;46028;-73
2023/04/12 06:19:40;;;;;;;;;13.75;11.75;;;;;16.16;47.21;100255.94;146620;618;46016;-73
2023/04/12 06:22:38;;;;;;;;;12.25;10.75;;;;;16.19;46.48;100262.09;146622;572;46011;-72
2023/04/12 06:25:46;;;;;;;;;16.00;9.75;;;;;16.14;45.98;100262.00;146619;589;46012;-75
2023/04/12 06:28:41;;;;;;;;;11.75;10.50;;;;;16.09;47.00;100261.88;146621;569;46020;-78
2023/04/12 06:31:38;;;;;;;;;10.00;9.00;;;;;16.00;49.39;100271.28;146623;676;46017;-78
2023/04/12 06:34:43;;;;;;;;;15.75;11.75;;;;;15.95;46.21;100268.56;146618;569;48020;-77
2023/04/12 06:37:50;;;;;;;;;12.00;9.00;;;;;15.85;46.66;100274.41;146621;664;46016;-76
2023/04/12 06:40:45;;;;;;;;;13.25;10.50;;;;;15.77;46.63;100276.88;146625;601;46012;-79
2023/04/12 06:43:41;;;;;;;;;12.25;10.75;;;;;15.72;45.86;100278.50;146618;591;46016;-77
2023/04/12 06:46:46;;;;;;;;;9.75;9.25;;;;;15.68;47.16;100274.91;146621;583;47010;-76
2023/04/12 06:49:39;;;;;;;;;12.00;10.25;;;;;15.72;47.03;100278.50;146620;584;46016;-80
2023/04/12 06:52:52;;;;;;;;;9.50;9.00;;;;;15.78;48.72;100285.59;146621;592;47010;-78
2023/04/12 06:55:57;;;;;;;;;15.25;11.50;;;;;15.82;46.79;100284.81;146619;598;46014;-78
2023/04/12 06:58:58;;;;;;;;;11.25;10.00;;;;;15.86;46.90;100281.44;146630;569;46010;-78
2023/04/12 07:02:02;;;;;;;;;18.75;15.75;;;;;14.48;47.19;100032.63;146618;606;46025;-76
2023/04/12 07:05:11;;;;;;;;;12.00;9.00;;;;;15.99;47.39;100296.53;146621;620;46010;-79
2023/04/12 07:08:11;;;;;;;;;8.00;8.00;;;;;16.05;47.40;100291.44;146622;673;46017;-79
2023/04/12 07:11:40;;;;;;;;;10.25;10.00;;;;;16.12;47.39;100292.47;146626;578;46012;-78
2023/04/12 07:14:42;;;;;;;;;;;;;;;;;;;;;
2023/04/12 07:17:40;;;;;;;;;10.75;10.00;;;;;16.24;44.88;100281.37;146630;690;46020;-78
2023/04/12 07:20:39;;;;;;;;;14.50;8.75;;;;;16.38;46.12;100274.69;146622;600;47014;-77
2023/04/12 07:23:45;;;;;;;;;11.50;11.25;;;;;16.55;45.24;100278.53;146624;628;46020;-78
2023/04/12 07:27:04;;;;;;;;;11.00;10.50;;;;;16.75;45.30;100285.91;146615;599;47016;-77
2023/04/12 07:30:12;;;;;;;;;9.75;8.75;;;;;16.89;44.33;100284.47;146621;615;46033;-78
2023/04/12 07:33:24;;;;;;;;;;;;;;;;;;;;;
2023/04/12 07:36:37;;;;;;;;;8.75;8.75;;;;;17.23;44.12;100271.97;146626;564;46031;-79
2023/04/12 07:39:33;;;;;;;;;11.00;9.00;;;;;17.34;43.49;100270.41;146623;746;46914;-78
2023/04/12 07:42:33;;;;;;;;;5.25;5.25;;;;;17.43;42.75;100269.66;146703;565;46022;-78
2023/04/12 07:45:44;;;;;;;;;11.00;10.00;;;;;17.57;46.54;100265.53;146616;693;47012;-77
2023/04/12 07:48:40;;;;;;;;;8.25;6.75;;;;;17.77;43.54;100265.84;146621;652;46010;-79
2023/04/12 07:51:36;;;;;;;;;2.00;0.25;;;;;17.93;42.91;100270.47;146619;619;46016;-79
2023/04/12 07:55:01;;;;;;;;;14.00;10.75;;;;;18.04;46.36;100260.13;146625;584;46010;-80
2023/04/12 07:57:57;;;;;;;;;10.50;9.75;;;;;18.27;41.75;100264.78;146620;621;46016;-78
2023/04/12 08:00:56;;;;;;;;;13.00;10.00;;;;;18.46;42.73;100259.78;146621;678;46010;-79
2023/04/12 08:04:23;;;;;;;;;;;;;;;;;;;;;
2023/04/12 08:07:15;;;;;;;;;12.00;11.00;;;;;19.01;39.36;100253.41;146624;688;46010;-78
2023/04/12 08:10:24;;;;;;;;;13.50;10.75;;;;;19.08;43.14;100244.69;146620;649;46012;-77
2023/04/12 08:13:24;;;;;;;;;14.25;13.00;;;;;19.13;40.92;100240.37;146623;584;46010;-77
2023/04/12 08:16:54;;;;;;;;;11.00;9.25;;;;;19.09;42.58;100243.81;146621;655;46012;-79
2023/04/12 08:20:19;;;;;;;;;15.00;13.25;;;;;18.57;43.81;100160.13;146624;585;46020;-81
2023/04/12 08:23:32;;;;;;;;;10.00;9.50;;;;;17.82;44.18;100028.19;146617;581;46914;-80
2023/04/12 08:26:30;;;;;;;;;12.25;11.50;;;;;19.07;40.35;100228.03;146620;564;46021;-77
2023/04/12 08:29:23;;;;;;;;;9.75;9.00;;;;;19.16;40.73;100224.63;146616;709;46017;-77
2023/04/12 08:32:15;;;;;;;;;9.50;9.50;;;;;19.24;40.40;100222.91;146621;569;46010;-79
2023/04/12 08:35:11;;;;;;;;;11.75;10.00;;;;;19.37;41.12;100219.50;146615;675;47012;-77
2023/04/12 08:38:23;;;;;;;;;13.25;12.00;;;;;19.49;43.26;100212.59;146619;674;46010;-77
2023/04/12 08:41:20;;;;;;;;;7.75;7.75;;;;;19.66;40.25;100216.25;146614;704;47012;-76
2023/04/12 08:44:15;;;;;;;;;12.50;10.00;;;;;19.81;39.27;100212.81;146623;635;46010;-75
2023/04/12 08:47:17;;;;;;;;;11.75;8.25;;;;;19.94;39.13;100204.13;146616;640;46014;-77
2023/04/12 08:50:34;;;;;;;;;7.50;7.50;;;;;20.08;42.52;100199.78;146623;580;46010;-76
2023/04/12 08:53:41;;;;;;;;;9.75;8.50;;;;;20.36;40.43;100206.91;146619;630;46915;-76
2023/04/12 08:57:05;;;;;;;;;;;;;;;;;;;;;
2023/04/12 08:59:59;;;;;;;;;8.00;8.00;;;;;20.86;38.66;100200.91;146619;594;46016;-77
2023/04/12 09:02:54;;;;;;;;;8.00;7.00;;;;;21.15;37.94;100193.91;146625;643;46010;-77
2023/04/12 09:05:51;;;;;;;;;8.50;7.25;;;;;21.49;37.50;100199.13;146620;613;47012;-76
2023/04/12 09:09:05;;;;;;;;;9.50;8.25;;;;;21.82;41.10;100195.56;146619;600;47020;-76
2023/04/12 09:12:26;;;;;;;;;8.25;6.75;;;;;21.70;41.07;100107.63;146619;651;46016;-77
2023/04/12 09:15:21;;;;;;;;;8.67;8.33;;;;;22.46;35.79;100194.44;146622;641;46010;-77
2023/04/12 09:18:26;;;;;;;;;;;;;;;;;;;;;
2023/04/12 09:21:31;;;;;;;;;8.75;7.00;;;;;22.55;35.19;100189.09;146623;609;46021;-77
2023/04/12 09:24:26;;;;;;;;;9.00;6.00;;;;;22.49;34.57;100186.50;146619;594;46016;-76
2023/04/12 09:27:31;;;;;;;;;11.00;8.67;;;;;21.33;35.60;99986.41;146625;577;46010;-77
2023/04/12 09:30:28;;;;;;;;;8.00;7.00;;;;;22.46;36.08;100173.31;146622;599;46012;-77
2023/04/12 09:33:50;;;;;;;;;9.25;7.00;;;;;22.52;32.45;100162.69;146625;631;46010;-77
2023/04/12 09:36:50;;;;;;;;;8.67;8.00;;;;;22.50;33.19;100179.44;146621;597;46012;-79
2023/04/12 09:39:46;;;;;;;;;9.00;8.00;;;;;22.36;35.55;100183.03;146626;651;46010;-77
2023/04/12 09:43:03;;;;;;;;;9.00;8.00;;;;;22.39;39.81;100181.25;146621;564;46014;-77
2023/04/12 09:46:16;;;;;;;;;8.33;7.67;;;;;22.53;33.96;100182.94;146622;592;47012;-77
2023/04/12 09:49:02;;;;;;;;;10.00;9.00;;;;;22.57;32.17;100184.66;146705;567;46023;-78
2023/04/12 09:52:03;;;;;;;;;12.00;8.00;;;;;22.55;33.55;100170.59;146621;596;46012;-76
2023/04/12 09:55:06;;;;;;;;;8.33;6.33;;;;;22.62;34.48;100165.25;146619;608;46021;-74
2023/04/12 09:58:15;;;;;;;;;6.33;6.33;;;;;22.86;34.40;100165.06;146612;581;46917;-76
2023/04/12 10:01:15;;;;;;;;;7.67;7.33;;;;;22.98;34.79;100162.37;146620;601;47010;-71
2023/04/12 10:04:09;;;;;;;;;7.33;7.00;;;;;23.09;33.18;100162.28;146618;579;46016;-76
2023/04/12 10:07:15;;;;;;;;;9.67;8.33;;;;;23.21;37.77;100154.25;146621;615;46020;-77
2023/04/12 10:10:14;;;;;;;;;6.67;6.67;;;;;23.42;34.97;100147.84;146616;581;47012;-77
2023/04/12 10:13:16;;;;;;;;;9.00;8.67;;;;;23.63;32.83;100143.22;146621;572;47020;-82
2023/04/12 10:16:13;;;;;;;;;8.00;7.00;;;;;23.74;32.78;100151.97;146616;582;46016;-77
2023/04/12 10:19:18;;;;;;;;;9.33;8.00;;;;;23.77;31.45;100141.34;146621;649;46021;-78
2023/04/12 10:22:20;;;;;;;;;8.00;7.67;;;;;23.71;32.46;100138.75;146617;576;46016;-76
2023/04/12 10:25:38;;;;;;;;;9.67;6.00;;;;;22.51;32.49;99906.44;146622;603;46021;-76
2023/04/12 10:28:36;;;;;;;;;8.67;7.00;;;;;23.73;31.81;100126.34;146619;600;46012;-77
2023/04/12 10:31:53;;;;;;;;;8.67;7.00;;;;;23.83;33.57;100120.06;146621;688;46021;-77
2023/04/12 10:35:16;;;;;;;;;6.67;6.67;;;;;21.75;37.79;99715.34;146617;597;46014;-77
2023/04/12 10:38:23;;;;;;;;;7.00;6.00;;;;;24.23;36.36;100100.09;146619;577;46020;-77
2023/04/12 10:41:35;;;;;;;;;;;;;;;;;;;;;
2023/04/12 10:44:39;;;;;;;;;23.50;23.50;;;;;24.46;31.20;100102.47;146618;580;46020;-78
2023/04/12 10:48:12;;;;;;;;;11.00;10.00;;;;;24.39;31.24;100094.56;146613;607;46013;-79
2023/04/12 10:51:32;;;;;;;;;7.67;7.67;;;;;24.17;37.04;100082.50;146614;593;46020;-77
2023/04/12 10:54:47;;;;;;;;;7.00;7.00;;;;;24.10;37.37;100068.50;146619;570;46012;-77
2023/04/12 10:58:03;;;;;;;;;9.67;7.33;;;;;23.04;35.57;99860.00;146620;592;46020;-76
2023/04/12 11:01:21;;;;;;;;;11.67;8.00;;;;;22.95;35.86;99826.63;146620;569;46012;-78
2023/04/12 11:04:26;;;;;;;;;4.33;4.00;;;;;24.32;30.65;100066.38;146622;647;47010;-77
2023/04/12 11:07:41;;;;;;;;;23.25;20.50;;;;;24.31;31.34;100055.84;146616;571;46016;-77
2023/04/12 11:10:49;;;;;;;;;5.67;4.33;;;;;23.26;31.15;99860.59;146614;564;47010;-76
2023/04/12 11:13:42;;;;;;;;;5.00;5.00;;;;;24.32;28.12;100046.97;146616;623;47014;-77
2023/04/12 11:17:36;;;;;;;;;6.67;6.00;;;;;20.92;31.58;99465.69;146623;571;46010;-78
2023/04/12 11:20:42;;;;;;;;;4.67;4.67;;;;;24.26;30.44;100036.47;146618;594;46016;-79
2023/04/12 11:23:50;;;;;;;;;10.33;9.00;;;;;24.33;33.68;100046.97;146622;621;46021;-76
2023/04/12 11:26:46;;;;;;;;;6.33;5.67;;;;;24.38;30.03;100034.50;146616;702;46017;-76
2023/04/12 11:29:46;;;;;;;;;6.33;6.00;;;;;24.34;31.38;100045.19;146621;596;46020;-78
2023/04/12 11:32:42;;;;;;;;;8.00;5.67;;;;;24.33;30.11;100035.47;146618;652;46017;-79
2023/04/12 11:35:55;;;;;;;;;7.00;6.00;;;;;24.36;28.58;100025.72;146620;595;47010;-77
2023/04/12 11:39:02;;;;;;;;;9.33;8.00;;;;;23.03;30.53;99794.81;146615;585;46017;-76
2023/04/12 11:42:12;;;;;;;;;6.33;6.00;;;;;24.36;29.97;100027.47;146622;622;46020;-77
2023/04/12 11:45:30;;;;;;;;;7.33;5.67;;;;;24.52;33.17;100017.56;146616;583;46919;-77
2023/04/12 11:48:25;;;;;;;;;10.33;6.67;;;;;24.68;28.71;100010.19;146620;603;47010;-76
2023/04/12 11:51:29;;;;;;;;;4.00;3.67;;;;;24.73;27.53;100006.53;146617;588;47025;-78
2023/04/12 11:54:26;;;;;;;;;5.33;5.33;;;;;24.65;28.27;99990.78;146621;602;47010;-77
2023/04/12 11:57:30;;;;;;;;;7.67;6.00;;;;;24.54;30.99;99999.81;146620;571;46012;-77
2023/04/12 12:00:48;;;;;;;;;5.67;5.00;;;;;24.50;29.69;99992.84;146622;582;46015;-77
2023/04/12 12:03:57;;;;;;;;;5.67;4.67;;;;;24.56;30.23;99996.25;146614;633;46017;-76
2023/04/12 12:06:55;;;;;;;;;5.33;4.33;;;;;24.56;26.32;99976.84;146622;640;46020;-79
2023/04/12 12:09:52;;;;;;;;;7.33;5.67;;;;;24.36;27.17;99971.81;146618;570;46016;-76
2023/04/12 12:13:07;;;;;;;;;7.00;6.00;;;;;24.18;27.85;99955.37;146705;565;45023;-78
2023/04/12 12:16:13;;;;;;;;;6.67;6.67;;;;;24.05;28.68;99952.91;146627;591;46012;-78
2023/04/12 12:19:51;;;;;;;;;5.00;5.00;;;;;22.94;33.76;99747.38;146631;601;46020;-78
2023/04/12 12:23:17;;;;;;;;;4.00;4.00;;;;;24.27;29.75;99950.78;146625;581;46016;-77
2023/04/12 12:26:26;;;;;;;;;;;;;;;;;;;;;
2023/04/12 12:30:15;;;;;;;;;6.33;4.33;;;;;22.97;35.36;99731.47;146624;629;46016;-79
2023/04/12 12:33:29;;;;;;;;;3.67;3.67;;;;;24.21;30.91;99938.56;146628;632;46029;-78
2023/04/12 12:36:33;;;;;;;;;6.67;6.00;;;;;24.30;31.96;99932.19;146627;573;46012;-79
2023/04/12 12:39:25;;;;;;;;;8.33;7.00;;;;;24.39;30.07;99943.53;146632;618;46010;-79
2023/04/12 12:42:50;;;;;;;;;7.00;5.33;;;;;23.27;30.69;99715.09;146626;604;46014;-80
2023/04/12 12:45:48;;;;;;;;;6.00;5.67;;;;;24.57;29.74;99931.72;146711;564;46022;-81
2023/04/12 12:48:55;;;;;;;;;5.33;4.00;;;;;24.36;31.47;99950.63;146625;625;46014;-80
2023/04/12 12:51:54;;;;;;;;;8.00;7.00;;;;;24.04;29.32;99922.06;146633;594;46020;-82
2023/04/12 12:55:00;;;;;;;;;4.00;4.00;;;;;23.77;29.41;99916.31;146623;625;46014;-82
2023/04/12 12:58:18;;;;;;;;;7.00;6.33;;;;;23.55;30.91;99917.47;146631;569;46021;-79
2023/04/12 13:01:16;;;;;;;;;4.00;4.00;;;;;23.48;30.67;99909.63;146623;583;45914;-81
2023/04/12 13:04:12;;;;;;;;;11.33;9.67;;;;;23.60;30.27;99911.22;146631;564;46021;-80
2023/04/12 13:07:12;;;;;;;;;8.67;8.67;;;;;23.77;30.33;99904.84;146626;569;46014;-80
2023/04/12 13:10:12;;;;;;;;;6.67;5.67;;;;;23.91;29.32;99902.84;146633;680;46010;-80
2023/04/12 13:13:13;;;;;;;;;6.67;5.67;;;;;24.02;30.12;99900.91;146627;574;46012;-80
2023/04/12 13:16:12;;;;;;;;;5.00;4.33;;;;;24.07;32.03;99896.38;146630;700;46010;-81
2023/04/12 13:19:22;;;;;;;;;7.67;6.33;;;;;24.11;29.79;99894.56;146623;638;46012;-81
2023/04/12 13:22:32;;;;;;;;;7.00;5.00;;;;;22.93;33.36;99682.13;146630;660;46010;-81
2023/04/12 13:25:41;;;;;;;;;8.00;6.33;;;;;24.12;30.60;99897.19;146628;609;46012;-80
2023/04/12 13:28:47;;;;;;;;;6.00;6.00;;;;;23.76;34.28;99890.72;146630;569;46020;-77
2023/04/12 13:31:55;;;;;;;;;7.33;6.00;;;;;22.40;34.88;99700.53;146625;652;46016;-82
2023/04/12 13:35:02;;;;;;;;;7.00;6.00;;;;;23.26;32.79;99887.03;146630;571;46021;-80
2023/04/12 13:38:12;;;;;;;;;8.67;4.00;;;;;23.01;31.60;99878.56;146624;569;46014;-80
2023/04/12 13:41:04;;;;;;;;;8.67;5.33;;;;;22.63;32.11;99882.50;146632;634;46010;-82
2023/04/12 13:43:56;;;;;;;;;8.33;7.00;;;;;22.29;33.00;99872.31;146624;635;46012;-83
2023/04/12 13:46:48;;;;;;;;;8.33;7.67;;;;;21.92;32.24;99884.94;146619;613;46020;-81
2023/04/12 13:49:56;;;;;;;;;9.00;5.67;;;;;21.57;33.06;99879.94;146620;597;46012;-80
2023/04/12 13:52:51;;;;;;;;;6.33;6.33;;;;;21.38;32.96;99871.28;146620;607;46020;-80
2023/04/12 13:55:53;;;;;;;;;7.67;6.33;;;;;21.38;34.46;99877.44;146620;636;46017;-82
2023/04/12 13:58:53;;;;;;;;;6.00;6.00;;;;;21.42;33.69;99875.66;146621;634;46020;-77
2023/04/12 14:01:57;;;;;;;;;9.00;6.67;;;;;21.40;33.85;99875.66;146618;635;46016;-83
2023/04/12 14:05:05;;;;;;;;;9.25;7.50;;;;;21.36;34.34;99870.41;146619;686;47021;-82
2023/04/12 14:08:10;;;;;;;;;5.67;5.67;;;;;21.34;32.26;99874.78;146616;578;46016;-79
2023/04/12 14:11:26;;;;;;;;;4.67;4.67;;;;;21.32;32.59;99868.66;146622;644;46014;-80
2023/04/12 14:14:26;;;;;;;;;7.67;6.00;;;;;21.32;31.68;99872.16;146619;566;46012;-81
2023/04/12 14:17:31;;;;;;;;;9.75;8.50;;;;;21.30;32.41;99870.41;146623;570;46015;-81
2023/04/12 14:20:23;;;;;;;;;7.00;7.00;;;;;21.27;32.60;99854.59;146617;660;46012;-83
2023/04/12 14:23:22;;;;;;;;;8.00;8.00;;;;;21.21;31.67;99864.31;146623;569;46020;-79
2023/04/12 14:26:21;;;;;;;;;6.50;6.00;;;;;21.16;33.88;99863.47;146620;570;46017;-82
2023/04/12 14:29:20;;;;;;;;;8.00;7.00;;;;;21.16;34.50;99862.59;146620;577;46020;-80
2023/04/12 14:32:36;;;;;;;;;;;;;;;;;;;;;
2023/04/12 14:35:33;;;;;;;;;10.67;9.67;;;;;21.21;34.30;99863.44;146622;708;47010;-81
2023/04/12 14:38:22;;;;;;;;;10.25;8.25;;;;;21.26;32.81;99866.06;146708;579;46023;-85
2023/04/12 14:41:20;;;;;;;;;9.25;7.00;;;;;21.35;34.00;99866.00;146625;641;46033;-80
2023/04/12 14:44:29;;;;;;;;;8.33;6.67;;;;;21.41;33.85;99853.69;146628;615;46020;-82